sensor_id;sensor_type;location;lat;lon;timestamp;temperature;humidity
67354;SHT30;54238;52.278;21.056;2023-10-31T00:01:10;13.72;77.01
67354;SHT30;54238;52.278;21.056;2023-10-31T00:03:39;13.70;77.10
67354;SHT30;54238;52.278;21.056;2023-10-31T00:06:09;13.68;77.19
67354;SHT30;54238;52.278;21.056;2023-10-31T00:08:36;13.66;77.16
67354;SHT30;54238;52.278;21.056;2023-10-31T00:11:10;13.65;77.21
67354;SHT30;54238;52.278;21.056;2023-10-31T00:13:42;13.63;77.36
67354;SHT30;54238;52.278;21.056;2023-10-31T00:16:08;13.61;77.41
67354;SHT30;54238;52.278;21.056;2023-10-31T00:18:40;13.59;77.40
67354;SHT30;54238;52.278;21.056;2023-10-31T00:21:10;13.60;77.40
67354;SHT30;54238;52.278;21.056;2023-10-31T00:23:47;13.59;77.42
67354;SHT30;54238;52.278;21.056;2023-10-31T00:26:17;13.60;77.39
67354;SHT30;54238;52.278;21.056;2023-10-31T00:28:49;13.59;77.39
67354;SHT30;54238;52.278;21.056;2023-10-31T00:31:19;13.59;77.35
67354;SHT30;54238;52.278;21.056;2023-10-31T00:33:53;13.59;77.45
67354;SHT30;54238;52.278;21.056;2023-10-31T00:36:24;13.59;77.45
67354;SHT30;54238;52.278;21.056;2023-10-31T00:38:53;13.59;77.46
67354;SHT30;54238;52.278;21.056;2023-10-31T00:41:23;13.58;77.47
67354;SHT30;54238;52.278;21.056;2023-10-31T00:43:52;13.57;77.49
67354;SHT30;54238;52.278;21.056;2023-10-31T00:46:19;13.56;77.51
67354;SHT30;54238;52.278;21.056;2023-10-31T00:48:46;13.58;77.45
67354;SHT30;54238;52.278;21.056;2023-10-31T00:51:17;13.56;77.42
67354;SHT30;54238;52.278;21.056;2023-10-31T00:53:47;13.55;77.44
67354;SHT30;54238;52.278;21.056;2023-10-31T00:56:17;13.55;77.51
67354;SHT30;54238;52.278;21.056;2023-10-31T00:58:51;13.54;77.51
67354;SHT30;54238;52.278;21.056;2023-10-31T01:01:23;13.54;77.52
67354;SHT30;54238;52.278;21.056;2023-10-31T01:03:50;13.53;77.54
67354;SHT30;54238;52.278;21.056;2023-10-31T01:06:19;13.53;77.57
67354;SHT30;54238;52.278;21.056;2023-10-31T01:08:48;13.52;77.56
67354;SHT30;54238;52.278;21.056;2023-10-31T01:11:20;13.51;77.54
67354;SHT30;54238;52.278;21.056;2023-10-31T01:13:47;13.50;77.56
67354;SHT30;54238;52.278;21.056;2023-10-31T01:16:23;13.48;77.58
67354;SHT30;54238;52.278;21.056;2023-10-31T01:18:52;13.48;77.60
67354;SHT30;54238;52.278;21.056;2023-10-31T01:21:19;13.47;77.68
67354;SHT30;54238;52.278;21.056;2023-10-31T01:23:46;13.44;77.60
67354;SHT30;54238;52.278;21.056;2023-10-31T01:26:16;13.45;77.54
67354;SHT30;54238;52.278;21.056;2023-10-31T01:28:46;13.45;77.52
67354;SHT30;54238;52.278;21.056;2023-10-31T01:31:16;13.45;77.46
67354;SHT30;54238;52.278;21.056;2023-10-31T01:33:47;13.45;77.43
67354;SHT30;54238;52.278;21.056;2023-10-31T01:36:27;13.45;77.33
67354;SHT30;54238;52.278;21.056;2023-10-31T01:38:57;13.45;77.30
67354;SHT30;54238;52.278;21.056;2023-10-31T01:41:26;13.45;77.35
67354;SHT30;54238;52.278;21.056;2023-10-31T01:43:53;13.46;77.50
67354;SHT30;54238;52.278;21.056;2023-10-31T01:46:22;13.46;77.54
67354;SHT30;54238;52.278;21.056;2023-10-31T01:48:54;13.46;77.53
67354;SHT30;54238;52.278;21.056;2023-10-31T01:51:23;13.48;77.61
67354;SHT30;54238;52.278;21.056;2023-10-31T01:53:55;13.48;77.65
67354;SHT30;54238;52.278;21.056;2023-10-31T01:56:25;13.47;77.70
67354;SHT30;54238;52.278;21.056;2023-10-31T01:58:55;13.47;77.66
67354;SHT30;54238;52.278;21.056;2023-10-31T02:01:22;13.48;77.65
67354;SHT30;54238;52.278;21.056;2023-10-31T02:03:52;13.50;77.59
67354;SHT30;54238;52.278;21.056;2023-10-31T02:06:24;13.51;77.53
67354;SHT30;54238;52.278;21.056;2023-10-31T02:08:56;13.51;77.52
67354;SHT30;54238;52.278;21.056;2023-10-31T02:11:23;13.52;77.47
67354;SHT30;54238;52.278;21.056;2023-10-31T02:13:53;13.52;77.43
67354;SHT30;54238;52.278;21.056;2023-10-31T02:16:27;13.54;77.40
67354;SHT30;54238;52.278;21.056;2023-10-31T02:18:56;13.55;77.32
67354;SHT30;54238;52.278;21.056;2023-10-31T02:21:26;13.57;77.31
67354;SHT30;54238;52.278;21.056;2023-10-31T02:24:02;13.57;77.23
67354;SHT30;54238;52.278;21.056;2023-10-31T02:26:37;13.57;77.20
67354;SHT30;54238;52.278;21.056;2023-10-31T02:29:08;13.55;77.21
67354;SHT30;54238;52.278;21.056;2023-10-31T02:31:40;13.56;77.27
67354;SHT30;54238;52.278;21.056;2023-10-31T02:34:11;13.57;77.32
67354;SHT30;54238;52.278;21.056;2023-10-31T02:36:42;13.56;77.30
67354;SHT30;54238;52.278;21.056;2023-10-31T02:39:12;13.57;77.33
67354;SHT30;54238;52.278;21.056;2023-10-31T02:41:43;13.59;77.34
67354;SHT30;54238;52.278;21.056;2023-10-31T02:44:10;13.61;77.30
67354;SHT30;54238;52.278;21.056;2023-10-31T02:46:45;13.65;77.28
67354;SHT30;54238;52.278;21.056;2023-10-31T02:49:12;13.68;77.30
67354;SHT30;54238;52.278;21.056;2023-10-31T02:51:42;13.72;77.25
67354;SHT30;54238;52.278;21.056;2023-10-31T02:54:09;13.75;77.20
67354;SHT30;54238;52.278;21.056;2023-10-31T02:56:38;13.78;77.12
67354;SHT30;54238;52.278;21.056;2023-10-31T02:59:10;13.83;77.08
67354;SHT30;54238;52.278;21.056;2023-10-31T03:01:39;13.87;76.99
67354;SHT30;54238;52.278;21.056;2023-10-31T03:04:08;13.91;76.85
67354;SHT30;54238;52.278;21.056;2023-10-31T03:06:37;13.94;76.86
67354;SHT30;54238;52.278;21.056;2023-10-31T03:09:06;13.96;76.72
67354;SHT30;54238;52.278;21.056;2023-10-31T03:11:36;13.98;76.70
67354;SHT30;54238;52.278;21.056;2023-10-31T03:14:03;14.01;76.64
67354;SHT30;54238;52.278;21.056;2023-10-31T03:16:32;14.03;76.55
67354;SHT30;54238;52.278;21.056;2023-10-31T03:18:59;14.05;76.48
67354;SHT30;54238;52.278;21.056;2023-10-31T03:21:29;14.05;76.46
67354;SHT30;54238;52.278;21.056;2023-10-31T03:23:56;14.07;76.39
67354;SHT30;54238;52.278;21.056;2023-10-31T03:26:28;14.08;76.34
67354;SHT30;54238;52.278;21.056;2023-10-31T03:29:00;14.10;76.28
67354;SHT30;54238;52.278;21.056;2023-10-31T03:31:29;14.10;76.29
67354;SHT30;54238;52.278;21.056;2023-10-31T03:34:01;14.13;76.26
67354;SHT30;54238;52.278;21.056;2023-10-31T03:36:35;14.15;76.17
67354;SHT30;54238;52.278;21.056;2023-10-31T03:39:04;14.19;76.06
67354;SHT30;54238;52.278;21.056;2023-10-31T03:41:36;14.21;75.98
67354;SHT30;54238;52.278;21.056;2023-10-31T03:44:05;14.24;75.90
67354;SHT30;54238;52.278;21.056;2023-10-31T03:46:32;14.25;75.84
67354;SHT30;54238;52.278;21.056;2023-10-31T03:49:03;14.26;75.79
67354;SHT30;54238;52.278;21.056;2023-10-31T03:51:36;14.28;75.73
67354;SHT30;54238;52.278;21.056;2023-10-31T03:54:10;14.29;75.64
67354;SHT30;54238;52.278;21.056;2023-10-31T03:56:45;14.34;75.53
67354;SHT30;54238;52.278;21.056;2023-10-31T03:59:12;14.37;75.40
67354;SHT30;54238;52.278;21.056;2023-10-31T04:01:39;14.40;75.29
67354;SHT30;54238;52.278;21.056;2023-10-31T04:04:08;14.44;75.20
67354;SHT30;54238;52.278;21.056;2023-10-31T04:06:35;14.48;75.09
67354;SHT30;54238;52.278;21.056;2023-10-31T04:09:06;14.50;74.96
67354;SHT30;54238;52.278;21.056;2023-10-31T04:11:33;14.53;74.85
67354;SHT30;54238;52.278;21.056;2023-10-31T04:14:09;14.56;74.73
67354;SHT30;54238;52.278;21.056;2023-10-31T04:16:41;14.61;74.62
67354;SHT30;54238;52.278;21.056;2023-10-31T04:19:12;14.64;74.47
67354;SHT30;54238;52.278;21.056;2023-10-31T04:21:40;14.68;74.29
67354;SHT30;54238;52.278;21.056;2023-10-31T04:24:11;14.72;74.16
67354;SHT30;54238;52.278;21.056;2023-10-31T04:26:46;14.75;73.95
67354;SHT30;54238;52.278;21.056;2023-10-31T04:29:15;14.82;73.74
67354;SHT30;54238;52.278;21.056;2023-10-31T04:31:42;14.86;73.47
67354;SHT30;54238;52.278;21.056;2023-10-31T04:34:12;14.92;73.24
67354;SHT30;54238;52.278;21.056;2023-10-31T04:36:42;14.98;72.97
67354;SHT30;54238;52.278;21.056;2023-10-31T04:39:14;15.03;72.70
67354;SHT30;54238;52.278;21.056;2023-10-31T04:41:43;15.09;72.53
67354;SHT30;54238;52.278;21.056;2023-10-31T04:44:14;15.16;72.14
67354;SHT30;54238;52.278;21.056;2023-10-31T04:46:43;15.23;71.90
67354;SHT30;54238;52.278;21.056;2023-10-31T04:49:10;15.30;71.47
67354;SHT30;54238;52.278;21.056;2023-10-31T04:51:37;15.36;71.10
67354;SHT30;54238;52.278;21.056;2023-10-31T04:54:04;15.43;70.80
67354;SHT30;54238;52.278;21.056;2023-10-31T04:56:34;15.49;70.57
67354;SHT30;54238;52.278;21.056;2023-10-31T04:59:06;15.55;70.26
67354;SHT30;54238;52.278;21.056;2023-10-31T05:01:37;15.59;69.84
67354;SHT30;54238;52.278;21.056;2023-10-31T05:04:12;15.65;69.53
67354;SHT30;54238;52.278;21.056;2023-10-31T05:06:41;15.69;69.39
67354;SHT30;54238;52.278;21.056;2023-10-31T05:09:11;15.72;69.14
67354;SHT30;54238;52.278;21.056;2023-10-31T05:11:38;15.78;68.85
67354;SHT30;54238;52.278;21.056;2023-10-31T05:14:08;15.81;68.62
67354;SHT30;54238;52.278;21.056;2023-10-31T05:16:44;15.85;68.53
67354;SHT30;54238;52.278;21.056;2023-10-31T05:19:14;15.88;68.36
67354;SHT30;54238;52.278;21.056;2023-10-31T05:21:41;15.90;67.94
67354;SHT30;54238;52.278;21.056;2023-10-31T05:24:08;15.93;67.77
67354;SHT30;54238;52.278;21.056;2023-10-31T05:26:39;15.97;67.55
67354;SHT30;54238;52.278;21.056;2023-10-31T05:29:06;16.01;67.41
67354;SHT30;54238;52.278;21.056;2023-10-31T05:31:35;16.05;67.14
67354;SHT30;54238;52.278;21.056;2023-10-31T05:34:13;16.08;66.81
67354;SHT30;54238;52.278;21.056;2023-10-31T05:36:40;16.11;66.56
67354;SHT30;54238;52.278;21.056;2023-10-31T05:39:07;16.14;66.50
67354;SHT30;54238;52.278;21.056;2023-10-31T05:41:35;16.16;66.23
67354;SHT30;54238;52.278;21.056;2023-10-31T05:44:04;16.17;66.05
67354;SHT30;54238;52.278;21.056;2023-10-31T05:46:31;16.21;65.96
67354;SHT30;54238;52.278;21.056;2023-10-31T05:49:00;16.22;65.90
67354;SHT30;54238;52.278;21.056;2023-10-31T05:51:30;16.24;65.62
67354;SHT30;54238;52.278;21.056;2023-10-31T05:53:59;16.24;65.50
67354;SHT30;54238;52.278;21.056;2023-10-31T05:56:29;16.25;65.59
67354;SHT30;54238;52.278;21.056;2023-10-31T05:58:58;16.26;65.71
67354;SHT30;54238;52.278;21.056;2023-10-31T06:01:27;16.25;65.71
67354;SHT30;54238;52.278;21.056;2023-10-31T06:03:57;16.25;65.65
67354;SHT30;54238;52.278;21.056;2023-10-31T06:06:32;16.24;66.01
67354;SHT30;54238;52.278;21.056;2023-10-31T06:09:02;16.21;66.37
67354;SHT30;54238;52.278;21.056;2023-10-31T06:11:34;16.18;66.34
67354;SHT30;54238;52.278;21.056;2023-10-31T06:14:07;16.15;66.36
67354;SHT30;54238;52.278;21.056;2023-10-31T06:16:43;16.14;66.45
67354;SHT30;54238;52.278;21.056;2023-10-31T06:19:13;16.14;66.43
67354;SHT30;54238;52.278;21.056;2023-10-31T06:21:44;16.13;66.23
67354;SHT30;54238;52.278;21.056;2023-10-31T06:24:16;16.16;65.93
67354;SHT30;54238;52.278;21.056;2023-10-31T06:26:48;16.17;65.86
67354;SHT30;54238;52.278;21.056;2023-10-31T06:29:15;16.19;65.95
67354;SHT30;54238;52.278;21.056;2023-10-31T06:31:44;16.20;66.05
67354;SHT30;54238;52.278;21.056;2023-10-31T06:34:11;16.19;66.09
67354;SHT30;54238;52.278;21.056;2023-10-31T06:36:38;16.19;66.48
67354;SHT30;54238;52.278;21.056;2023-10-31T06:39:09;16.16;66.52
67354;SHT30;54238;52.278;21.056;2023-10-31T06:41:36;16.14;66.84
67354;SHT30;54238;52.278;21.056;2023-10-31T06:44:04;16.13;67.00
67354;SHT30;54238;52.278;21.056;2023-10-31T06:46:31;16.10;67.13
67354;SHT30;54238;52.278;21.056;2023-10-31T06:48:58;16.08;67.21
67354;SHT30;54238;52.278;21.056;2023-10-31T06:51:25;16.06;67.38
67354;SHT30;54238;52.278;21.056;2023-10-31T06:53:59;16.04;67.45
67354;SHT30;54238;52.278;21.056;2023-10-31T06:56:29;16.03;67.53
67354;SHT30;54238;52.278;21.056;2023-10-31T06:58:56;16.01;67.55
67354;SHT30;54238;52.278;21.056;2023-10-31T07:01:27;16.00;67.78
67354;SHT30;54238;52.278;21.056;2023-10-31T07:03:59;15.98;68.02
67354;SHT30;54238;52.278;21.056;2023-10-31T07:06:28;15.97;68.16
67354;SHT30;54238;52.278;21.056;2023-10-31T07:09:00;15.96;68.13
67354;SHT30;54238;52.278;21.056;2023-10-31T07:11:31;15.96;68.16
67354;SHT30;54238;52.278;21.056;2023-10-31T07:14:03;15.96;68.07
67354;SHT30;54238;52.278;21.056;2023-10-31T07:16:33;15.97;67.96
67354;SHT30;54238;52.278;21.056;2023-10-31T07:19:02;15.96;67.91
67354;SHT30;54238;52.278;21.056;2023-10-31T07:21:31;15.97;67.88
67354;SHT30;54238;52.278;21.056;2023-10-31T07:24:01;15.99;67.80
67354;SHT30;54238;52.278;21.056;2023-10-31T07:26:28;16.01;67.64
67354;SHT30;54238;52.278;21.056;2023-10-31T07:28:57;16.05;67.40
67354;SHT30;54238;52.278;21.056;2023-10-31T07:31:30;16.07;67.22
67354;SHT30;54238;52.278;21.056;2023-10-31T07:33:57;16.10;67.20
67354;SHT30;54238;52.278;21.056;2023-10-31T07:36:24;16.13;67.05
67354;SHT30;54238;52.278;21.056;2023-10-31T07:38:51;16.16;66.81
67354;SHT30;54238;52.278;21.056;2023-10-31T07:41:18;16.19;66.52
67354;SHT30;54238;52.278;21.056;2023-10-31T07:43:48;16.23;66.45
67354;SHT30;54238;52.278;21.056;2023-10-31T07:46:15;16.27;66.16
67354;SHT30;54238;52.278;21.056;2023-10-31T07:48:44;16.29;66.04
67354;SHT30;54238;52.278;21.056;2023-10-31T07:51:15;16.32;65.93
67354;SHT30;54238;52.278;21.056;2023-10-31T07:53:42;16.33;65.74
67354;SHT30;54238;52.278;21.056;2023-10-31T07:56:16;16.34;65.84
67354;SHT30;54238;52.278;21.056;2023-10-31T07:58:51;16.34;65.92
67354;SHT30;54238;52.278;21.056;2023-10-31T08:01:26;16.34;65.98
67354;SHT30;54238;52.278;21.056;2023-10-31T08:03:55;16.33;66.12
67354;SHT30;54238;52.278;21.056;2023-10-31T08:06:24;16.32;66.34
67354;SHT30;54238;52.278;21.056;2023-10-31T08:08:54;16.31;66.51
67354;SHT30;54238;52.278;21.056;2023-10-31T08:11:26;16.30;66.54
67354;SHT30;54238;52.278;21.056;2023-10-31T08:14:01;16.30;66.54
67354;SHT30;54238;52.278;21.056;2023-10-31T08:16:28;16.31;66.65
67354;SHT30;54238;52.278;21.056;2023-10-31T08:18:58;16.31;66.70
67354;SHT30;54238;52.278;21.056;2023-10-31T08:21:25;16.32;66.61
67354;SHT30;54238;52.278;21.056;2023-10-31T08:24:00;16.34;66.51
67354;SHT30;54238;52.278;21.056;2023-10-31T08:26:29;16.36;66.41
67354;SHT30;54238;52.278;21.056;2023-10-31T08:29:00;16.39;66.33
67354;SHT30;54238;52.278;21.056;2023-10-31T08:31:29;16.41;66.28
67354;SHT30;54238;52.278;21.056;2023-10-31T08:33:58;16.43;66.35
67354;SHT30;54238;52.278;21.056;2023-10-31T08:36:25;16.46;66.20
67354;SHT30;54238;52.278;21.056;2023-10-31T08:38:58;16.50;66.18
67354;SHT30;54238;52.278;21.056;2023-10-31T08:41:27;16.55;66.19
67354;SHT30;54238;52.278;21.056;2023-10-31T08:43:57;16.59;66.12
67354;SHT30;54238;52.278;21.056;2023-10-31T08:46:29;16.66;65.91
67354;SHT30;54238;52.278;21.056;2023-10-31T08:49:02;16.76;65.82
67354;SHT30;54238;52.278;21.056;2023-10-31T08:51:29;16.84;65.71
67354;SHT30;54238;52.278;21.056;2023-10-31T08:53:56;16.90;65.54
67354;SHT30;54238;52.278;21.056;2023-10-31T08:56:27;16.97;65.31
67354;SHT30;54238;52.278;21.056;2023-10-31T08:58:57;17.03;65.27
67354;SHT30;54238;52.278;21.056;2023-10-31T09:01:26;17.05;64.82
67354;SHT30;54238;52.278;21.056;2023-10-31T09:03:56;17.08;64.47
67354;SHT30;54238;52.278;21.056;2023-10-31T09:06:27;17.12;64.37
67354;SHT30;54238;52.278;21.056;2023-10-31T09:08:56;17.16;64.43
67354;SHT30;54238;52.278;21.056;2023-10-31T09:11:26;17.20;64.12
67354;SHT30;54238;52.278;21.056;2023-10-31T09:13:58;17.22;63.96
67354;SHT30;54238;52.278;21.056;2023-10-31T09:16:25;17.23;63.90
67354;SHT30;54238;52.278;21.056;2023-10-31T09:18:52;17.23;63.54
67354;SHT30;54238;52.278;21.056;2023-10-31T09:21:21;17.24;63.26
67354;SHT30;54238;52.278;21.056;2023-10-31T09:23:50;17.26;63.35
67354;SHT30;54238;52.278;21.056;2023-10-31T09:26:22;17.26;62.98
67354;SHT30;54238;52.278;21.056;2023-10-31T09:28:51;17.27;63.09
67354;SHT30;54238;52.278;21.056;2023-10-31T09:31:20;17.25;63.05
67354;SHT30;54238;52.278;21.056;2023-10-31T09:33:47;17.25;63.13
67354;SHT30;54238;52.278;21.056;2023-10-31T09:36:19;17.27;62.89
67354;SHT30;54238;52.278;21.056;2023-10-31T09:38:51;17.28;62.81
67354;SHT30;54238;52.278;21.056;2023-10-31T09:41:18;17.30;62.96
67354;SHT30;54238;52.278;21.056;2023-10-31T09:43:50;17.31;62.69
67354;SHT30;54238;52.278;21.056;2023-10-31T09:46:22;17.30;62.47
67354;SHT30;54238;52.278;21.056;2023-10-31T09:48:52;17.31;62.23
67354;SHT30;54238;52.278;21.056;2023-10-31T09:51:21;17.35;61.99
67354;SHT30;54238;52.278;21.056;2023-10-31T09:53:48;17.38;61.61
67354;SHT30;54238;52.278;21.056;2023-10-31T09:56:26;17.43;61.23
67354;SHT30;54238;52.278;21.056;2023-10-31T09:59:01;17.50;61.26
67354;SHT30;54238;52.278;21.056;2023-10-31T10:01:33;17.58;61.06
67354;SHT30;54238;52.278;21.056;2023-10-31T10:04:02;17.65;60.12
67354;SHT30;54238;52.278;21.056;2023-10-31T10:06:30;17.75;59.61
67354;SHT30;54238;52.278;21.056;2023-10-31T10:09:01;17.85;58.69
67354;SHT30;54238;52.278;21.056;2023-10-31T10:11:34;17.95;58.59
67354;SHT30;54238;52.278;21.056;2023-10-31T10:14:01;18.04;58.00
67354;SHT30;54238;52.278;21.056;2023-10-31T10:16:32;18.11;57.67
67354;SHT30;54238;52.278;21.056;2023-10-31T10:19:16;18.18;57.53
67354;SHT30;54238;52.278;21.056;2023-10-31T10:21:52;18.28;57.41
67354;SHT30;54238;52.278;21.056;2023-10-31T10:24:26;18.36;57.10
67354;SHT30;54238;52.278;21.056;2023-10-31T10:26:53;18.43;56.93
67354;SHT30;54238;52.278;21.056;2023-10-31T10:29:20;18.51;56.61
67354;SHT30;54238;52.278;21.056;2023-10-31T10:31:50;18.59;56.16
67354;SHT30;54238;52.278;21.056;2023-10-31T10:34:19;18.67;56.15
67354;SHT30;54238;52.278;21.056;2023-10-31T10:36:51;18.74;55.77
67354;SHT30;54238;52.278;21.056;2023-10-31T10:39:23;18.79;55.52
67354;SHT30;54238;52.278;21.056;2023-10-31T10:41:54;18.87;55.37
67354;SHT30;54238;52.278;21.056;2023-10-31T10:44:32;18.96;55.41
67354;SHT30;54238;52.278;21.056;2023-10-31T10:47:05;19.08;55.30
67354;SHT30;54238;52.278;21.056;2023-10-31T10:49:45;19.23;55.15
67354;SHT30;54238;52.278;21.056;2023-10-31T10:52:24;19.37;54.93
67354;SHT30;54238;52.278;21.056;2023-10-31T10:55:11;19.42;54.58
67354;SHT30;54238;52.278;21.056;2023-10-31T10:57:48;19.43;54.72
67354;SHT30;54238;52.278;21.056;2023-10-31T11:00:32;19.47;54.77
67354;SHT30;54238;52.278;21.056;2023-10-31T11:03:01;19.48;54.61
67354;SHT30;54238;52.278;21.056;2023-10-31T11:05:31;19.47;54.57
67354;SHT30;54238;52.278;21.056;2023-10-31T11:08:03;19.45;54.61
67354;SHT30;54238;52.278;21.056;2023-10-31T11:10:32;19.41;54.78
67354;SHT30;54238;52.278;21.056;2023-10-31T11:12:59;19.38;54.89
67354;SHT30;54238;52.278;21.056;2023-10-31T11:15:31;19.38;55.14
67354;SHT30;54238;52.278;21.056;2023-10-31T11:18:00;19.38;55.35
67354;SHT30;54238;52.278;21.056;2023-10-31T11:20:29;19.37;55.56
67354;SHT30;54238;52.278;21.056;2023-10-31T11:22:58;19.36;55.82
67354;SHT30;54238;52.278;21.056;2023-10-31T11:25:33;19.35;56.16
67354;SHT30;54238;52.278;21.056;2023-10-31T11:28:13;19.34;56.27
67354;SHT30;54238;52.278;21.056;2023-10-31T11:30:45;19.35;56.41
67354;SHT30;54238;52.278;21.056;2023-10-31T11:33:19;19.36;56.56
67354;SHT30;54238;52.278;21.056;2023-10-31T11:35:50;19.35;56.70
67354;SHT30;54238;52.278;21.056;2023-10-31T11:38:34;19.37;56.91
67354;SHT30;54238;52.278;21.056;2023-10-31T11:41:05;19.36;56.95
67354;SHT30;54238;52.278;21.056;2023-10-31T11:46:22;19.35;57.25
67354;SHT30;54238;52.278;21.056;2023-10-31T11:48:56;19.35;57.36
67354;SHT30;54238;52.278;21.056;2023-10-31T11:51:26;19.34;57.64
67354;SHT30;54238;52.278;21.056;2023-10-31T11:53:53;19.34;57.88
67354;SHT30;54238;52.278;21.056;2023-10-31T11:56:21;19.32;58.09
67354;SHT30;54238;52.278;21.056;2023-10-31T11:59:03;19.30;58.31
67354;SHT30;54238;52.278;21.056;2023-10-31T12:01:45;19.29;58.47
67354;SHT30;54238;52.278;21.056;2023-10-31T12:04:22;19.30;58.68
67354;SHT30;54238;52.278;21.056;2023-10-31T12:06:58;19.26;58.92
67354;SHT30;54238;52.278;21.056;2023-10-31T12:09:28;19.24;59.16
67354;SHT30;54238;52.278;21.056;2023-10-31T12:12:00;19.23;59.31
67354;SHT30;54238;52.278;21.056;2023-10-31T12:14:26;19.19;59.56
67354;SHT30;54238;52.278;21.056;2023-10-31T12:16:57;19.21;59.65
67354;SHT30;54238;52.278;21.056;2023-10-31T12:19:31;19.28;59.75
67354;SHT30;54238;52.278;21.056;2023-10-31T12:22:11;19.61;59.38
67354;SHT30;54238;52.278;21.056;2023-10-31T12:24:41;20.36;57.83
67354;SHT30;54238;52.278;21.056;2023-10-31T12:27:08;20.45;56.97
67354;SHT30;54238;52.278;21.056;2023-10-31T12:29:37;20.29;56.95
67354;SHT30;54238;52.278;21.056;2023-10-31T12:32:11;20.16;57.41
67354;SHT30;54238;52.278;21.056;2023-10-31T12:34:43;20.06;57.76
67354;SHT30;54238;52.278;21.056;2023-10-31T12:37:13;19.96;58.04
67354;SHT30;54238;52.278;21.056;2023-10-31T12:39:44;19.83;58.30
67354;SHT30;54238;52.278;21.056;2023-10-31T12:42:19;19.67;58.79
67354;SHT30;54238;52.278;21.056;2023-10-31T12:44:51;19.59;59.16
67354;SHT30;54238;52.278;21.056;2023-10-31T12:47:21;19.50;59.38
67354;SHT30;54238;52.278;21.056;2023-10-31T12:52:55;19.31;59.93
67354;SHT30;54238;52.278;21.056;2023-10-31T12:55:24;19.17;60.13
67354;SHT30;54238;52.278;21.056;2023-10-31T12:57:59;19.09;60.40
67354;SHT30;54238;52.278;21.056;2023-10-31T13:00:30;18.99;60.76
67354;SHT30;54238;52.278;21.056;2023-10-31T13:03:07;18.89;60.89
67354;SHT30;54238;52.278;21.056;2023-10-31T13:05:39;18.80;60.98
67354;SHT30;54238;52.278;21.056;2023-10-31T13:08:17;18.68;61.14
67354;SHT30;54238;52.278;21.056;2023-10-31T13:10:48;18.57;61.02
67354;SHT30;54238;52.278;21.056;2023-10-31T13:13:16;18.48;61.37
67354;SHT30;54238;52.278;21.056;2023-10-31T13:15:43;18.44;61.58
67354;SHT30;54238;52.278;21.056;2023-10-31T13:18:13;18.40;61.69
67354;SHT30;54238;52.278;21.056;2023-10-31T13:20:42;18.36;61.86
67354;SHT30;54238;52.278;21.056;2023-10-31T13:23:11;18.35;61.97
67354;SHT30;54238;52.278;21.056;2023-10-31T13:25:40;18.34;62.12
67354;SHT30;54238;52.278;21.056;2023-10-31T13:28:10;18.30;62.22
67354;SHT30;54238;52.278;21.056;2023-10-31T13:30:40;18.26;62.42
67354;SHT30;54238;52.278;21.056;2023-10-31T13:33:07;18.21;62.67
67354;SHT30;54238;52.278;21.056;2023-10-31T13:35:36;18.16;62.77
67354;SHT30;54238;52.278;21.056;2023-10-31T13:38:03;18.11;62.96
67354;SHT30;54238;52.278;21.056;2023-10-31T13:40:30;18.06;63.24
67354;SHT30;54238;52.278;21.056;2023-10-31T13:42:59;18.03;63.40
67354;SHT30;54238;52.278;21.056;2023-10-31T13:45:29;18.02;63.50
67354;SHT30;54238;52.278;21.056;2023-10-31T13:47:58;18.02;63.54
67354;SHT30;54238;52.278;21.056;2023-10-31T13:50:29;18.00;63.60
67354;SHT30;54238;52.278;21.056;2023-10-31T13:52:59;17.98;63.43
67354;SHT30;54238;52.278;21.056;2023-10-31T13:55:31;17.95;63.20
67354;SHT30;54238;52.278;21.056;2023-10-31T13:58:00;17.92;63.22
67354;SHT30;54238;52.278;21.056;2023-10-31T14:00:32;17.91;63.11
67354;SHT30;54238;52.278;21.056;2023-10-31T14:03:04;17.88;63.03
67354;SHT30;54238;52.278;21.056;2023-10-31T14:05:33;17.88;62.79
67354;SHT30;54238;52.278;21.056;2023-10-31T14:08:00;17.85;62.51
67354;SHT30;54238;52.278;21.056;2023-10-31T14:10:27;17.85;62.46
67354;SHT30;54238;52.278;21.056;2023-10-31T14:12:54;17.84;62.54
67354;SHT30;54238;52.278;21.056;2023-10-31T14:15:23;17.82;62.37
67354;SHT30;54238;52.278;21.056;2023-10-31T14:17:55;17.85;61.78
67354;SHT30;54238;52.278;21.056;2023-10-31T14:20:29;17.88;61.47
67354;SHT30;54238;52.278;21.056;2023-10-31T14:22:58;17.94;61.40
67354;SHT30;54238;52.278;21.056;2023-10-31T14:25:27;17.97;61.02
67354;SHT30;54238;52.278;21.056;2023-10-31T14:27:54;17.94;60.77
67354;SHT30;54238;52.278;21.056;2023-10-31T14:30:23;17.87;60.84
67354;SHT30;54238;52.278;21.056;2023-10-31T14:32:53;17.78;61.01
67354;SHT30;54238;52.278;21.056;2023-10-31T14:35:22;17.73;61.29
67354;SHT30;54238;52.278;21.056;2023-10-31T14:37:49;17.68;61.54
67354;SHT30;54238;52.278;21.056;2023-10-31T14:40:23;17.64;61.76
67354;SHT30;54238;52.278;21.056;2023-10-31T14:42:50;17.64;61.97
67354;SHT30;54238;52.278;21.056;2023-10-31T14:45:17;17.65;61.97
67354;SHT30;54238;52.278;21.056;2023-10-31T14:47:44;17.64;61.94
67354;SHT30;54238;52.278;21.056;2023-10-31T14:50:13;17.63;62.04
67354;SHT30;54238;52.278;21.056;2023-10-31T14:52:44;17.59;62.11
67354;SHT30;54238;52.278;21.056;2023-10-31T14:55:11;17.52;62.34
67354;SHT30;54238;52.278;21.056;2023-10-31T14:57:43;17.46;62.51
67354;SHT30;54238;52.278;21.056;2023-10-31T15:00:10;17.38;62.71
67354;SHT30;54238;52.278;21.056;2023-10-31T15:02:42;17.32;62.80
67354;SHT30;54238;52.278;21.056;2023-10-31T15:05:13;17.26;62.91
67354;SHT30;54238;52.278;21.056;2023-10-31T15:07:40;17.19;62.95
67354;SHT30;54238;52.278;21.056;2023-10-31T15:10:08;17.14;63.15
67354;SHT30;54238;52.278;21.056;2023-10-31T15:12:40;17.10;63.21
67354;SHT30;54238;52.278;21.056;2023-10-31T15:15:08;17.07;63.17
67354;SHT30;54238;52.278;21.056;2023-10-31T15:17:38;17.04;63.21
67354;SHT30;54238;52.278;21.056;2023-10-31T15:20:10;16.98;62.81
67354;SHT30;54238;52.278;21.056;2023-10-31T15:22:43;16.96;62.81
67354;SHT30;54238;52.278;21.056;2023-10-31T15:25:17;16.93;62.80
67354;SHT30;54238;52.278;21.056;2023-10-31T15:27:47;16.88;62.66
67354;SHT30;54238;52.278;21.056;2023-10-31T15:30:13;16.85;62.68
67354;SHT30;54238;52.278;21.056;2023-10-31T15:32:43;16.81;62.68
67354;SHT30;54238;52.278;21.056;2023-10-31T15:35:10;16.78;62.69
67354;SHT30;54238;52.278;21.056;2023-10-31T15:37:36;16.78;62.67
67354;SHT30;54238;52.278;21.056;2023-10-31T15:40:06;16.74;62.69